Armthorpe, United Kingdom
Current Conditions -  °F | °C
As of 12:20 AM on Sunday 21 Dec 2014 (Local Time) from EGCN Reporting Station
Broken Clouds Broken Clouds  
Wind Chill: 39°   Ceiling: 4000
Heat Index: 45°   Visibility: 6mi
Dew Point: 39°   Wind: 10mph
Humidity: 81%   Direction: 230°SW
Pressure: 30.36"   Gusts: NA
Location:  53.54°N, 1.05°W
Report Text: EGCN 210020Z 23009KT 9999 FEW031 BKN040 BKN047 07/04 Q1028
Loading
Personal Weather Stations






























Interactive Weather Map New forecast layout! Learn more

10-Day Weather Forecast

Advertisements
Track Severe Weather on mobile